createdAt,value
2023-05-21T00:13:49.284Z,33.21
2023-05-21T00:33:49.280Z,33.21
2023-05-21T00:53:49.251Z,33.21
2023-05-21T01:13:49.236Z,33.21
2023-05-21T01:33:49.242Z,33.2
2023-05-21T02:13:49.206Z,33.2
2023-05-21T02:33:49.216Z,33.2
2023-05-21T02:53:49.184Z,33.2
2023-05-21T03:13:49.172Z,33.2
2023-05-21T03:33:49.139Z,33.19
2023-05-21T03:53:49.135Z,33.2
2023-05-21T04:13:49.123Z,33.19
2023-05-21T04:53:49.114Z,33.19
2023-05-21T05:13:49.085Z,33.19
2023-05-21T05:33:48.965Z,33.19
2023-05-21T05:53:48.289Z,33.19
2023-05-21T06:13:49.052Z,33.18
2023-05-21T06:33:49.057Z,33.18
2023-05-21T06:53:49.010Z,33.18
2023-05-21T07:13:48.996Z,33.18
2023-05-21T07:33:48.993Z,33.18
2023-05-21T07:53:48.976Z,33.17
2023-05-21T08:13:48.962Z,33.17
2023-05-21T08:33:48.939Z,33.17
2023-05-21T08:53:48.922Z,33.17
2023-05-21T09:13:48.964Z,33.17
2023-05-21T09:33:48.894Z,33.17
2023-05-21T09:53:48.894Z,33.17
2023-05-21T10:13:48.865Z,33.17
2023-05-21T10:33:48.859Z,33.17
2023-05-21T10:53:48.303Z,33.16
2023-05-21T11:13:48.866Z,33.16
2023-05-21T11:33:48.798Z,33.15
2023-05-21T11:53:48.793Z,33.16
2023-05-21T12:13:48.814Z,33.15
2023-05-21T12:53:48.760Z,33.15
2023-05-21T13:13:48.726Z,33.15
2023-05-21T13:33:48.739Z,33.15
2023-05-21T13:53:48.715Z,33.15
2023-05-21T15:13:48.617Z,33.14
2023-05-21T15:33:48.610Z,33.14
2023-05-21T16:13:48.580Z,33.14
2023-05-21T16:53:48.041Z,33.13
2023-05-21T17:13:48.383Z,33.14
2023-05-21T17:33:47.740Z,33.13
2023-05-21T17:53:48.482Z,33.13
2023-05-21T18:13:48.464Z,33.13
2023-05-21T18:33:48.453Z,33.13
2023-05-21T18:53:48.463Z,33.13
2023-05-21T19:13:48.421Z,33.12
2023-05-21T19:33:48.514Z,33.12
2023-05-21T19:53:48.384Z,33.12
2023-05-21T20:13:48.384Z,33.12
2023-05-21T20:33:48.346Z,33.12
2023-05-21T20:53:48.354Z,33.12
2023-05-21T21:13:48.303Z,33.12
2023-05-21T21:33:47.574Z,33.12
2023-05-21T21:53:48.279Z,33.12
2023-05-21T22:13:48.263Z,33.12
2023-05-21T22:33:48.261Z,33.11
2023-05-21T22:53:48.238Z,33.11
2023-05-21T23:13:48.203Z,33.11
2023-05-21T23:33:48.072Z,33.11
2023-05-21T23:53:48.183Z,33.11
